Surfside Beach, South Carolina
Current Conditions -  °F | °C
As of 12:45 PM on Saturday 25 Oct 2014 (Local Time) from KMYR Reporting Station
Clear Clear  
Wind Chill: 72°   Ceiling: Unl
Heat Index: 72°   Visibility: 10mi
Dew Point: 46°   Wind: 9mph
Humidity: 41%   Direction: 310°NW
Pressure: 30"   Gusts: NA
Location:  33.6169°N, 78.9894°W
Report Text: KMYR 251645Z 31008KT 10SM CLR 22/08 A3000
Loading
Personal Weather Stations






























Interactive Weather Map
Tropical Storm Tracking
New forecast layout! Learn more

10-Day Weather Forecast

Advertisements
Track Severe Weather on mobile